createdAt,value
2023-10-11T00:00:40.651Z,4.68
2023-10-11T00:03:19.301Z,4.78
2023-10-11T00:05:47.190Z,4.22
2023-10-11T00:08:20.042Z,4.40
2023-10-11T00:10:48.573Z,4.35
2023-10-11T00:13:18.447Z,5.23
2023-10-11T00:15:52.002Z,4.85
2023-10-11T00:18:22.349Z,4.75
2023-10-11T00:20:52.911Z,4.78
2023-10-11T00:23:24.977Z,4.07
2023-10-11T00:26:00.045Z,4.45
2023-10-11T00:28:27.807Z,4.40
2023-10-11T00:31:01.174Z,5.20
2023-10-11T00:33:38.508Z,5.00
2023-10-11T00:36:07.003Z,4.55
2023-10-11T00:38:43.975Z,4.35
2023-10-11T00:41:21.304Z,4.10
2023-10-11T00:43:54.804Z,4.60
2023-10-11T00:46:24.004Z,4.55
2023-10-11T00:48:55.621Z,4.57
2023-10-11T00:51:32.550Z,5.07
2023-10-11T00:54:06.076Z,4.68
2023-10-11T00:56:33.842Z,3.92
2023-10-11T00:59:11.703Z,4.57
2023-10-11T01:01:39.189Z,4.50
2023-10-11T01:04:08.124Z,4.50
2023-10-11T01:06:35.578Z,4.10
2023-10-11T01:09:14.704Z,5.07
2023-10-11T01:11:41.401Z,4.70
2023-10-11T01:14:09.775Z,3.97
2023-10-11T01:16:36.431Z,4.40
2023-10-11T01:19:09.047Z,4.70
2023-10-11T01:21:35.555Z,4.32
2023-10-11T01:24:02.136Z,4.60
2023-10-11T01:26:28.891Z,4.25
2023-10-11T01:28:57.874Z,4.25
2023-10-11T01:31:24.953Z,4.25
2023-10-11T01:33:53.546Z,4.30
2023-10-11T01:36:23.143Z,4.20
2023-10-11T01:38:50.612Z,4.50
2023-10-11T01:41:23.983Z,4.80
2023-10-11T01:43:51.699Z,4.22
2023-10-11T01:46:19.848Z,4.57
2023-10-11T01:48:46.603Z,4.63
2023-10-11T01:51:27.320Z,4.75
2023-10-11T01:54:01.196Z,4.57
2023-10-11T01:56:28.722Z,4.65
2023-10-11T01:59:01.777Z,4.50
2023-10-11T02:01:31.644Z,4.38
2023-10-11T02:04:01.021Z,4.47
2023-10-11T02:06:33.726Z,4.45
2023-10-11T02:09:00.918Z,4.40
2023-10-11T02:11:30.780Z,4.55
2023-10-11T02:13:58.782Z,4.07
2023-10-11T02:16:26.314Z,4.60
2023-10-11T02:18:56.798Z,4.68
2023-10-11T02:21:24.798Z,4.43
2023-10-11T02:23:51.476Z,4.70
2023-10-11T02:26:18.379Z,4.45
2023-10-11T02:28:46.199Z,4.38
2023-10-11T02:31:14.306Z,4.40
2023-10-11T02:33:41.478Z,4.55
2023-10-11T02:36:18.134Z,4.30
2023-10-11T02:38:48.913Z,4.07
2023-10-11T02:41:27.669Z,5.03
2023-10-11T02:43:54.533Z,4.55
2023-10-11T02:46:24.637Z,4.57
2023-10-11T02:49:05.631Z,4.50
2023-10-11T02:51:36.341Z,4.82
2023-10-11T02:54:06.482Z,4.88
2023-10-11T02:56:47.722Z,5.43
2023-10-11T02:59:20.630Z,5.10
2023-10-11T03:02:00.315Z,4.55
2023-10-11T03:04:42.860Z,4.78
2023-10-11T03:07:24.905Z,4.85
2023-10-11T03:09:55.546Z,4.68
2023-10-11T03:12:33.435Z,4.25
2023-10-11T03:15:07.422Z,4.95
2023-10-11T03:17:41.796Z,4.45
2023-10-11T03:20:26.106Z,4.70
2023-10-11T03:22:53.383Z,4.57
2023-10-11T03:25:20.658Z,4.30
2023-10-11T03:27:50.358Z,4.07
2023-10-11T03:30:18.053Z,4.80
2023-10-11T03:32:45.893Z,4.60
2023-10-11T03:35:19.803Z,4.72
2023-10-11T03:38:07.625Z,4.65
2023-10-11T03:40:51.217Z,4.53
2023-10-11T03:43:18.632Z,5.28
2023-10-11T03:45:51.658Z,4.13
2023-10-11T03:48:22.070Z,4.80
2023-10-11T03:50:49.345Z,4.18
2023-10-11T03:53:16.685Z,5.10
2023-10-11T03:55:50.222Z,4.53
2023-10-11T03:58:34.041Z,4.95
2023-10-11T04:01:07.384Z,4.88
2023-10-11T04:03:35.336Z,4.90
2023-10-11T04:06:02.595Z,5.15
2023-10-11T04:08:29.378Z,4.35
2023-10-11T04:10:57.817Z,5.40
2023-10-11T04:13:27.105Z,4.40
2023-10-11T04:15:55.960Z,4.60
2023-10-11T04:18:32.977Z,4.28
2023-10-11T04:21:16.040Z,4.63
2023-10-11T04:23:46.730Z,4.25
2023-10-11T04:26:31.891Z,4.60
2023-10-11T04:29:07.431Z,4.90
2023-10-11T04:31:55.088Z,4.70
2023-10-11T04:34:24.564Z,4.88
2023-10-11T04:36:56.367Z,3.95
2023-10-11T04:39:29.905Z,4.65
2023-10-11T04:41:58.314Z,4.55
2023-10-11T04:44:25.244Z,4.32
2023-10-11T04:47:01.971Z,4.32
2023-10-11T04:49:31.728Z,4.30
2023-10-11T04:51:58.795Z,4.68
2023-10-11T04:54:37.872Z,4.78
2023-10-11T04:57:18.493Z,5.00
2023-10-11T04:59:47.969Z,4.50
2023-10-11T05:02:25.239Z,4.28
2023-10-11T05:04:53.118Z,4.80
2023-10-11T05:07:23.118Z,4.53
2023-10-11T05:10:22.105Z,4.72
2023-10-11T05:15:31.096Z,4.47
2023-10-11T05:18:00.916Z,5.13
2023-10-11T05:20:42.672Z,4.78
2023-10-11T05:23:12.935Z,5.18
2023-10-11T05:25:54.620Z,4.45
2023-10-11T05:28:23.594Z,5.30
2023-10-11T05:31:07.840Z,5.22
2023-10-11T05:33:58.936Z,4.38
2023-10-11T05:36:41.330Z,4.80
2023-10-11T05:39:26.676Z,4.15
2023-10-11T05:42:11.995Z,4.78
2023-10-11T05:44:57.268Z,4.53
2023-10-11T05:47:42.629Z,4.80
2023-10-11T05:50:28.124Z,4.68
2023-10-11T05:52:56.954Z,5.18
2023-10-11T05:55:24.104Z,4.85
2023-10-11T05:57:51.395Z,4.68
2023-10-11T06:00:27.509Z,4.65
2023-10-11T06:02:54.404Z,4.72
2023-10-11T06:05:23.691Z,5.70
2023-10-11T06:10:33.391Z,5.43
2023-10-11T06:13:00.093Z,5.60
2023-10-11T06:15:26.649Z,5.43
2023-10-11T06:17:56.148Z,5.22
2023-10-11T06:20:28.717Z,4.88
2023-10-11T06:22:55.800Z,5.15
2023-10-11T06:25:45.188Z,5.57
2023-10-11T06:28:15.350Z,4.72
2023-10-11T06:30:44.045Z,5.22
2023-10-11T06:33:13.920Z,4.60
2023-10-11T06:35:50.499Z,4.03
2023-10-11T06:38:17.455Z,4.80
2023-10-11T06:40:55.683Z,5.07
2023-10-11T06:43:22.573Z,4.60
2023-10-11T06:45:50.706Z,4.47
2023-10-11T06:48:17.706Z,4.90
2023-10-11T06:50:44.372Z,4.57
2023-10-11T06:53:11.680Z,4.60
2023-10-11T06:55:49.117Z,4.90
2023-10-11T06:58:20.611Z,4.93
2023-10-11T07:00:47.641Z,5.00
2023-10-11T07:03:21.866Z,4.38
2023-10-11T07:05:50.390Z,4.32
2023-10-11T07:08:21.448Z,4.65
2023-10-11T07:11:07.130Z,4.57
2023-10-11T07:13:53.106Z,5.32
2023-10-11T07:16:22.877Z,4.78
2023-10-11T07:18:51.888Z,4.78
2023-10-11T07:21:20.600Z,5.00
2023-10-11T07:23:56.844Z,5.30
2023-10-11T07:26:26.347Z,4.75
2023-10-11T07:28:54.140Z,4.65
2023-10-11T07:31:21.929Z,4.95
2023-10-11T07:33:52.078Z,4.57
2023-10-11T07:36:20.260Z,5.00
2023-10-11T07:38:48.139Z,4.80
2023-10-11T07:41:20.651Z,5.07
2023-10-11T07:43:47.468Z,4.70
2023-10-11T07:46:14.702Z,4.60
2023-10-11T07:48:41.880Z,4.90
2023-10-11T07:51:11.323Z,4.88
2023-10-11T07:53:44.855Z,4.90
2023-10-11T07:56:11.716Z,5.63
2023-10-11T07:58:46.285Z,5.25
2023-10-11T08:01:17.929Z,4.70
2023-10-11T08:03:47.383Z,5.00
2023-10-11T08:06:15.285Z,5.18
2023-10-11T08:08:41.772Z,4.75
2023-10-11T08:11:20.193Z,5.03
2023-10-11T08:13:49.150Z,4.65
2023-10-11T08:16:19.284Z,5.05
2023-10-11T08:18:47.691Z,4.78
2023-10-11T08:21:14.425Z,4.40
2023-10-11T08:23:44.710Z,4.18
2023-10-11T08:26:22.238Z,4.82
2023-10-11T08:28:52.943Z,4.18
2023-10-11T08:31:35.672Z,4.72
2023-10-11T08:34:04.710Z,4.40
2023-10-11T08:36:34.701Z,3.83
2023-10-11T08:39:06.582Z,5.00
2023-10-11T08:41:35.095Z,4.88
2023-10-11T08:44:03.073Z,4.78
2023-10-11T08:46:33.146Z,5.80
2023-10-11T08:49:01.800Z,5.10
2023-10-11T08:51:37.863Z,4.32
2023-10-11T08:54:15.484Z,4.95
2023-10-11T08:56:49.776Z,5.27
2023-10-11T08:59:16.980Z,4.18
2023-10-11T09:01:46.270Z,4.05
2023-10-11T09:04:14.406Z,4.22
2023-10-11T09:06:45.891Z,3.90
2023-10-11T09:09:35.162Z,4.40
2023-10-11T09:12:21.926Z,4.45
2023-10-11T09:15:01.770Z,4.57
2023-10-11T09:17:28.811Z,4.38
2023-10-11T09:20:01.077Z,4.95
2023-10-11T09:22:29.298Z,4.55
2023-10-11T09:25:06.954Z,4.28
2023-10-11T09:27:55.494Z,4.25
2023-10-11T09:30:25.136Z,4.97
2023-10-11T09:33:00.652Z,4.10
2023-10-11T09:35:28.720Z,4.95
2023-10-11T09:37:59.853Z,4.13
2023-10-11T09:40:35.626Z,4.15
2023-10-11T09:43:02.727Z,3.95
2023-10-11T09:45:43.782Z,4.30
2023-10-11T09:48:13.493Z,4.00
2023-10-11T09:50:43.779Z,4.05
2023-10-11T09:53:14.417Z,4.68
2023-10-11T09:55:47.139Z,4.70
2023-10-11T09:58:29.896Z,4.38
2023-10-11T10:01:11.569Z,4.35
2023-10-11T10:03:46.508Z,3.50
2023-10-11T10:06:20.255Z,4.68
2023-10-11T10:08:51.490Z,4.40
2023-10-11T10:11:20.699Z,4.45
2023-10-11T10:17:05.316Z,4.63
2023-10-11T10:19:40.892Z,4.35
2023-10-11T10:22:17.949Z,4.40
2023-10-11T10:24:45.994Z,4.15
2023-10-11T10:27:34.451Z,5.17
2023-10-11T10:30:02.467Z,4.60
2023-10-11T10:32:29.102Z,4.60
2023-10-11T10:35:20.740Z,4.65
2023-10-11T10:37:47.208Z,4.50
2023-10-11T10:40:26.099Z,4.40
2023-10-11T10:43:15.466Z,4.60
2023-10-11T10:45:42.467Z,4.80
2023-10-11T10:48:20.458Z,4.75
2023-10-11T10:50:51.885Z,4.33
2023-10-11T10:53:20.095Z,4.72
2023-10-11T10:55:46.833Z,4.68
2023-10-11T10:58:20.607Z,4.82
2023-10-11T11:00:56.112Z,4.65
2023-10-11T11:03:24.577Z,4.80
2023-10-11T11:06:02.681Z,4.47
2023-10-11T11:08:30.622Z,4.47
2023-10-11T11:11:23.607Z,5.03
2023-10-11T11:13:50.669Z,4.88
2023-10-11T11:16:23.285Z,4.82
2023-10-11T11:18:49.944Z,4.63
2023-10-11T11:21:26.693Z,4.80
2023-10-11T11:23:53.878Z,5.30
2023-10-11T11:29:09.606Z,4.82
2023-10-11T11:31:54.312Z,4.50
2023-10-11T11:34:38.439Z,5.78
2023-10-11T11:39:50.606Z,4.45
2023-10-11T11:42:20.462Z,4.40
2023-10-11T11:44:47.983Z,4.90
2023-10-11T11:47:25.077Z,4.85
2023-10-11T11:49:52.690Z,4.90
2023-10-11T11:52:19.317Z,5.10
2023-10-11T11:54:45.838Z,4.65
2023-10-11T11:57:12.540Z,5.13
2023-10-11T11:59:40.147Z,4.22
2023-10-11T12:02:17.587Z,4.78
2023-10-11T12:04:49.185Z,4.55
2023-10-11T12:07:16.037Z,4.78
2023-10-11T12:09:52.200Z,4.93
2023-10-11T12:12:28.481Z,4.65
2023-10-11T12:14:55.813Z,4.93
2023-10-11T12:17:22.485Z,4.43
2023-10-11T12:19:54.458Z,5.00
2023-10-11T12:22:23.563Z,4.63
2023-10-11T12:27:17.441Z,4.68
2023-10-11T12:30:07.209Z,4.97
2023-10-11T12:32:35.235Z,4.07
2023-10-11T12:35:07.238Z,4.15
2023-10-11T12:37:36.831Z,4.53
2023-10-11T12:40:12.672Z,4.30
2023-10-11T12:42:39.329Z,4.07
2023-10-11T12:45:09.198Z,4.50
2023-10-11T12:47:36.162Z,4.30
2023-10-11T12:50:04.912Z,4.38
2023-10-11T12:52:34.245Z,4.35
2023-10-11T12:55:01.703Z,3.75
2023-10-11T12:57:29.371Z,3.97
2023-10-11T12:59:59.667Z,3.58
2023-10-11T13:02:34.913Z,3.45
2023-10-11T13:05:01.779Z,4.10
2023-10-11T13:07:28.414Z,3.70
2023-10-11T13:09:55.396Z,3.60
2023-10-11T13:12:23.463Z,3.42
2023-10-11T13:14:52.319Z,3.87
2023-10-11T13:19:45.456Z,4.00
2023-10-11T13:22:13.960Z,3.65
2023-10-11T13:24:40.654Z,3.88
2023-10-11T13:27:08.329Z,3.30
2023-10-11T13:29:35.011Z,3.78
2023-10-11T13:32:01.636Z,3.80
2023-10-11T13:34:35.355Z,4.07
2023-10-11T13:37:04.616Z,3.75
2023-10-11T13:39:40.942Z,3.88
2023-10-11T13:42:15.789Z,3.70
2023-10-11T13:44:44.479Z,3.80
2023-10-11T13:47:11.133Z,3.92
2023-10-11T13:49:42.013Z,3.70
2023-10-11T13:52:08.797Z,3.97
2023-10-11T13:54:52.615Z,3.88
2023-10-11T13:57:19.482Z,4.28
2023-10-11T13:59:48.017Z,3.88
2023-10-11T14:02:19.995Z,3.75
2023-10-11T14:04:49.104Z,3.45
2023-10-11T14:07:34.981Z,3.97
2023-10-11T14:10:11.641Z,3.92
2023-10-11T14:12:40.107Z,4.00
2023-10-11T14:15:13.011Z,4.20
2023-10-11T14:17:40.034Z,4.00
2023-10-11T14:20:08.875Z,3.35
2023-10-11T14:22:35.810Z,3.85
2023-10-11T14:25:02.502Z,4.00
2023-10-11T14:27:31.138Z,4.35
2023-10-11T14:29:58.368Z,3.67
2023-10-11T14:32:25.114Z,4.20
2023-10-11T14:34:52.804Z,4.22
2023-10-11T14:37:20.607Z,4.18
2023-10-11T14:39:50.679Z,3.90
2023-10-11T14:42:17.614Z,3.75
2023-10-11T14:44:44.293Z,3.53
2023-10-11T14:47:11.951Z,3.50
2023-10-11T14:49:38.662Z,3.95
2023-10-11T14:52:09.106Z,3.70
2023-10-11T14:54:40.569Z,3.53
2023-10-11T14:57:08.579Z,3.80
2023-10-11T14:59:36.337Z,3.90
2023-10-11T15:02:06.278Z,3.38
2023-10-11T15:04:37.155Z,4.93
2023-10-11T15:07:07.480Z,4.28
2023-10-11T15:09:37.008Z,3.90
2023-10-11T15:12:04.318Z,3.80
2023-10-11T15:14:30.855Z,3.63
2023-10-11T15:16:59.516Z,4.00
2023-10-11T15:19:26.405Z,3.75
2023-10-11T15:21:53.749Z,4.35
2023-10-11T15:24:24.330Z,3.80
2023-10-11T15:26:51.937Z,4.35
2023-10-11T15:29:19.186Z,3.72
2023-10-11T15:31:45.807Z,3.40
2023-10-11T15:34:14.698Z,3.90
2023-10-11T15:39:11.247Z,4.20
2023-10-11T15:44:04.933Z,4.03
2023-10-11T15:46:31.575Z,3.78
2023-10-11T15:49:00.430Z,4.15
2023-10-11T15:53:54.530Z,4.03
2023-10-11T15:56:21.349Z,4.05
2023-10-11T15:58:47.924Z,4.60
2023-10-11T16:01:15.701Z,4.28
2023-10-11T16:03:45.138Z,4.03
2023-10-11T16:06:13.130Z,4.00
2023-10-11T16:08:40.059Z,4.28
2023-10-11T16:11:11.566Z,3.75
2023-10-11T16:13:38.605Z,3.80
2023-10-11T16:16:08.463Z,4.38
2023-10-11T16:18:35.820Z,3.83
2023-10-11T16:21:04.423Z,3.80
2023-10-11T16:23:33.154Z,4.10
2023-10-11T16:26:01.184Z,4.03
2023-10-11T16:28:29.042Z,4.07
2023-10-11T16:30:59.849Z,4.13
2023-10-11T16:33:33.440Z,4.20
2023-10-11T16:36:02.386Z,3.92
2023-10-11T16:41:01.304Z,4.25
2023-10-11T16:43:28.270Z,5.00
2023-10-11T16:45:54.877Z,3.80
2023-10-11T16:48:21.418Z,3.70
2023-10-11T16:50:49.697Z,3.92
2023-10-11T16:53:16.267Z,4.63
2023-10-11T16:55:43.354Z,3.70
2023-10-11T16:58:10.801Z,4.13
2023-10-11T17:00:38.271Z,4.13
2023-10-11T17:03:05.352Z,3.63
2023-10-11T17:05:35.285Z,3.80
2023-10-11T17:08:02.527Z,4.10
2023-10-11T17:10:29.106Z,3.67
2023-10-11T17:12:56.157Z,4.43
2023-10-11T17:15:25.444Z,3.92
2023-10-11T17:17:53.843Z,4.10
2023-10-11T17:20:22.361Z,4.00
2023-10-11T17:22:51.368Z,3.97
2023-10-11T17:25:22.312Z,4.93
2023-10-11T17:27:52.499Z,3.70
2023-10-11T17:30:20.447Z,4.65
2023-10-11T17:32:48.465Z,3.38
2023-10-11T17:35:16.454Z,3.75
2023-10-11T17:37:47.907Z,3.40
2023-10-11T17:40:19.089Z,3.75
2023-10-11T17:42:49.698Z,4.43
2023-10-11T17:45:18.429Z,3.88
2023-10-11T17:47:45.139Z,3.83
2023-10-11T17:50:14.714Z,3.75
2023-10-11T17:52:42.383Z,3.90
2023-10-11T17:55:09.723Z,3.45
2023-10-11T17:57:37.596Z,3.90
2023-10-11T18:00:08.411Z,3.83
2023-10-11T18:02:37.197Z,4.28
2023-10-11T18:05:08.583Z,4.95
2023-10-11T18:07:36.003Z,3.92
2023-10-11T18:10:06.552Z,4.22
2023-10-11T18:12:33.734Z,4.90
2023-10-11T18:15:01.519Z,5.32
2023-10-11T18:17:30.849Z,9.55
2023-10-11T18:19:58.155Z,5.32
2023-10-11T18:22:30.341Z,8.02
2023-10-11T18:24:57.457Z,5.60
2023-10-11T18:27:23.990Z,8.93
2023-10-11T18:29:50.648Z,12.77
2023-10-11T18:32:20.159Z,11.35
2023-10-11T18:34:50.118Z,5.20
2023-10-11T18:37:17.497Z,4.60
2023-10-11T18:39:45.741Z,4.75
2023-10-11T18:42:16.454Z,4.50
2023-10-11T18:44:43.113Z,4.57
2023-10-11T18:47:11.020Z,4.30
2023-10-11T18:49:38.675Z,4.53
2023-10-11T18:52:05.818Z,4.47
2023-10-11T18:54:32.420Z,4.22
2023-10-11T18:56:59.061Z,3.67
2023-10-11T18:59:26.065Z,4.38
2023-10-11T19:01:52.933Z,4.82
2023-10-11T19:04:22.282Z,4.25
2023-10-11T19:06:49.378Z,3.80
2023-10-11T19:09:16.033Z,4.43
2023-10-11T19:11:43.956Z,4.20
2023-10-11T19:14:10.556Z,4.53
2023-10-11T19:16:37.785Z,3.83
2023-10-11T19:19:04.385Z,4.07
2023-10-11T19:21:31.802Z,4.15
2023-10-11T19:23:58.326Z,3.95
2023-10-11T19:26:25.107Z,4.28
2023-10-11T19:28:53.003Z,4.25
2023-10-11T19:31:20.090Z,4.72
2023-10-11T19:33:46.712Z,4.03
2023-10-11T19:36:14.004Z,4.22
2023-10-11T19:38:41.036Z,4.28
2023-10-11T19:41:07.604Z,4.28
2023-10-11T19:43:36.497Z,4.10
2023-10-11T19:46:10.126Z,3.42
2023-10-11T19:48:36.764Z,4.18
2023-10-11T19:51:03.973Z,4.13
2023-10-11T19:53:30.700Z,3.85
2023-10-11T19:55:57.898Z,3.63
2023-10-11T19:58:25.474Z,4.53
2023-10-11T20:00:53.101Z,4.22
2023-10-11T20:03:19.674Z,4.15
2023-10-11T20:05:46.708Z,4.15
2023-10-11T20:08:16.687Z,4.50
2023-10-11T20:10:48.084Z,4.32
2023-10-11T20:13:14.699Z,4.00
2023-10-11T20:15:42.055Z,4.00
2023-10-11T20:18:09.346Z,4.20
2023-10-11T20:20:37.603Z,4.07
2023-10-11T20:23:08.075Z,4.28
2023-10-11T20:25:35.152Z,4.30
2023-10-11T20:28:01.611Z,3.75
2023-10-11T20:30:28.323Z,4.60
2023-10-11T20:32:57.314Z,3.95
2023-10-11T20:35:25.404Z,4.65
2023-10-11T20:37:53.755Z,4.00
2023-10-11T20:40:23.392Z,3.28
2023-10-11T20:42:54.467Z,4.25
2023-10-11T20:45:23.440Z,4.68
2023-10-11T20:47:54.553Z,4.38
2023-10-11T20:50:23.141Z,4.05
2023-10-11T20:52:51.433Z,4.00
2023-10-11T20:55:20.699Z,4.22
2023-10-11T21:00:23.790Z,4.63
2023-10-11T21:02:50.661Z,4.28
2023-10-11T21:05:17.370Z,4.18
2023-10-11T21:07:43.863Z,4.25
2023-10-11T21:10:13.611Z,4.10
2023-10-11T21:12:41.303Z,4.47
2023-10-11T21:15:13.812Z,4.53
2023-10-11T21:17:44.288Z,4.10
2023-10-11T21:20:12.458Z,4.03
2023-10-11T21:22:41.100Z,4.18
2023-10-11T21:25:15.198Z,4.18
2023-10-11T21:27:48.737Z,4.07
2023-10-11T21:30:19.987Z,4.13
2023-10-11T21:32:51.933Z,3.88
2023-10-11T21:35:22.679Z,3.83
2023-10-11T21:37:50.003Z,4.22
2023-10-11T21:40:17.868Z,4.35
2023-10-11T21:42:44.465Z,4.57
2023-10-11T21:45:15.231Z,4.22
2023-10-11T21:47:46.507Z,3.83
2023-10-11T21:50:14.000Z,4.05
2023-10-11T21:52:44.225Z,3.95
2023-10-11T21:55:15.079Z,4.13
2023-10-11T21:57:44.437Z,4.72
2023-10-11T22:00:16.886Z,3.97
2023-10-11T22:02:47.382Z,3.97
2023-10-11T22:05:15.039Z,4.43
2023-10-11T22:07:48.203Z,4.32
2023-10-11T22:10:16.452Z,3.97
2023-10-11T22:12:46.884Z,4.03
2023-10-11T22:15:14.355Z,4.00
2023-10-11T22:17:55.710Z,4.20
2023-10-11T22:20:25.823Z,4.47
2023-10-11T22:22:53.066Z,4.20
2023-10-11T22:25:22.639Z,4.20
2023-10-11T22:27:49.447Z,4.05
2023-10-11T22:30:24.245Z,3.70
2023-10-11T22:33:09.615Z,4.32
2023-10-11T22:35:37.464Z,3.90
2023-10-11T22:38:04.879Z,4.25
2023-10-11T22:40:32.694Z,4.03
2023-10-11T22:43:05.152Z,4.22
2023-10-11T22:45:41.058Z,3.97
2023-10-11T22:48:07.716Z,3.83
2023-10-11T22:50:34.920Z,4.15
2023-10-11T22:53:02.681Z,4.57
2023-10-11T22:55:32.668Z,4.13
2023-10-11T22:58:03.719Z,3.90
2023-10-11T23:00:34.068Z,4.38
2023-10-11T23:03:02.466Z,3.83
2023-10-11T23:05:32.727Z,3.97
2023-10-11T23:07:59.790Z,3.95
2023-10-11T23:10:27.515Z,3.80
2023-10-11T23:12:55.938Z,3.85
2023-10-11T23:15:34.991Z,4.10
2023-10-11T23:18:14.439Z,4.20
2023-10-11T23:20:46.426Z,4.25
2023-10-11T23:23:14.078Z,4.43
2023-10-11T23:25:50.567Z,4.18
2023-10-11T23:28:22.983Z,4.00
2023-10-11T23:30:52.692Z,4.63
2023-10-11T23:33:19.821Z,4.20
2023-10-11T23:35:46.597Z,4.03
2023-10-11T23:38:28.312Z,3.92
2023-10-11T23:40:56.263Z,3.78
2023-10-11T23:43:30.096Z,4.03
2023-10-11T23:45:57.986Z,4.25
2023-10-11T23:48:34.635Z,3.63
2023-10-11T23:51:06.373Z,4.75
2023-10-11T23:53:44.312Z,3.53
2023-10-11T23:56:21.672Z,4.00
2023-10-11T23:58:57.902Z,3.83
